Current Weather

Salisbury-Ocean City Wicomico Rgnl

Salisbury, Maryland (KSBY)

Report from: Thursday, April 25, 2024 12:54 AM EDT
Current time: Thursday, April 25, 2024 1:09 AM EDT

Nearby weather – Weather history – Daily summaries
Weather forecast

Temperature10.6°C (51.1°F)
Dew point9.4°C (48.9°F)
Winds Calm
Visibility10 mi. (16.1 km)
Clouds Ceiling: Broken clouds 11,000 ft. (3,353 m)
Altimeter30.09 in.Hg (1019 mB)
Relative humidity92 %
Density altitude-556 ft. (-170 m)
Sea-level pressure101.9 kPa (1019 mB, 30.09 in.Hg)
Max temp last 24 hours22.8°C (73.0°F)
Min temp last 24 hours9.4°C (48.9°F)
Remarks Fully automated report
Automated weather observing station with precipitation discriminator
Flight conditions Visual Meteorological Conditions
Raw dataKSBY 250454Z AUTO 00000KT 10SM BKN110 11/09 A3009 RMK AO2 SLP191 T01060094 402280094
An error has occurred. This application may no longer respond until reloaded. Reload 🗙